Wilson Cadiz — 8PSY — position and weather

sailwx.info

Track history (hours):
 
Tides and Currents Weather Stations Pressure Air Temp Water Temp Dewpoint Dewpoint Depression Visibility Wind Speed Wind Dir Waves Ship Positions

Wilson Cadiz

Last reported at 2016-Jun-30 14:10 UTC. Time now 2016-Jul-01 19:02 UTC.
Position N 62°28' W 005°44'.

Length 100 m; draft 4.4 m.

Type: Ship. MMSI: 314216000.

Date/timePositionNaut miles runAvg speedWind from/ knotsBaromVisibWave heightAir tempDewpointWater temp
2016-Jun-30 14:10N 62°28' W 005°44'710.7
2016-Jun-30 13:34N 62°31' W 005°56'1010.2
2016-Jun-30 12:34N 62°34' W 006°17'1010.4
2016-Jun-30 11:34N 62°35' W 006°40'1110.6
2016-Jun-30 10:34N 62°36' W 007°03'1110.6
2016-Jun-30 09:34N 62°37' W 007°26'1111.0
2016-Jun-30 08:34N 62°38' W 007°50'1111.5
2016-Jun-30 07:33N 62°39' W 008°14'1111.0
2016-Jun-30 06:34N 62°40' W 008°38'1111.3
2016-Jun-30 05:34N 62°41' W 009°03'  
2016-Jun-22 14:29N 55°52' W 007°04'1010.5
2016-Jun-22 13:33N 55°45' W 006°52'1111.0
2016-Jun-22 12:33N 55°38' W 006°38'1010.1
2016-Jun-22 11:33N 55°31' W 006°24'9 9.0
2016-Jun-22 10:33N 55°26' W 006°12'8 7.6
2016-Jun-22 09:33N 55°22' W 006°00'7 6.9
2016-Jun-22 08:33N 55°17' W 005°53'9 8.5
2016-Jun-22 07:33N 55°09' W 005°46'2211.0
2016-Jun-22 05:33N 54°50' W 005°29'1312.6
2016-Jun-22 04:33N 54°38' W 005°21'1212.3
2016-Jun-22 03:33N 54°26' W 005°17'1211.6
2016-Jun-22 02:33N 54°14' W 005°19'1111.2
2016-Jun-22 01:33N 54°03' W 005°21'10312.6
2016-Jun-21 17:25N 52°21' W 005°41'1010.6
2016-Jun-21 16:30N 52°11' W 005°43'  
Track history (hours):
 
Tides and Currents Weather Stations Pressure Air Temp Water Temp Dewpoint Dewpoint Depression Visibility Wind Speed Wind Dir Waves Ship Positions

Wilson Cadiz

Last reported at 2016-Jun-30 14:10 UTC. Time now 2016-Jul-01 19:02 UTC.
Position N 62°28' W 005°44'.

Length 100 m; draft 4.4 m.

Type: Ship. MMSI: 314216000.

Date/timePositionNaut miles runAvg speedWind from/ knotsBaromVisibWave heightAir tempDewpointWater temp
2016-Jun-30 14:10N 62°28' W 005°44'710.7
2016-Jun-30 13:34N 62°31' W 005°56'1010.2
2016-Jun-30 12:34N 62°34' W 006°17'1010.4
2016-Jun-30 11:34N 62°35' W 006°40'1110.6
2016-Jun-30 10:34N 62°36' W 007°03'1110.6
2016-Jun-30 09:34N 62°37' W 007°26'1111.0
2016-Jun-30 08:34N 62°38' W 007°50'1111.5
2016-Jun-30 07:33N 62°39' W 008°14'1111.0
2016-Jun-30 06:34N 62°40' W 008°38'1111.3
2016-Jun-30 05:34N 62°41' W 009°03'  
2016-Jun-22 14:29N 55°52' W 007°04'1010.5
2016-Jun-22 13:33N 55°45' W 006°52'1111.0
2016-Jun-22 12:33N 55°38' W 006°38'1010.1
2016-Jun-22 11:33N 55°31' W 006°24'9 9.0
2016-Jun-22 10:33N 55°26' W 006°12'8 7.6
2016-Jun-22 09:33N 55°22' W 006°00'7 6.9
2016-Jun-22 08:33N 55°17' W 005°53'9 8.5
2016-Jun-22 07:33N 55°09' W 005°46'2211.0
2016-Jun-22 05:33N 54°50' W 005°29'1312.6
2016-Jun-22 04:33N 54°38' W 005°21'1212.3
2016-Jun-22 03:33N 54°26' W 005°17'1211.6
2016-Jun-22 02:33N 54°14' W 005°19'1111.2
2016-Jun-22 01:33N 54°03' W 005°21'10312.6
2016-Jun-21 17:25N 52°21' W 005°41'1010.6
2016-Jun-21 16:30N 52°11' W 005°43'  

Dump ship's entire track history